Terminal Aerodrome Forecast
Issued by NWS Pocatello, ID

Home | Current Version | Previous Version | Text Only | Print | Product List | Glossary On
Versions: 1 2 3 4 5 6 7 8 9 10 11 12 13 14 15 16 17
000
FTUS45 KPIH 200520
TAFBYI
TAF
KBYI 200520Z 2006/2106 VRB06KT P6SM -SHRA SCT025 BKN070
      TEMPO 2008/2011 6SM -SHRASN BR SCT010 OVC030
     FM201200 17013G23KT P6SM VCSH SCT020 OVC040
     FM201800 19016G26KT 6SM -SHRA BR BKN010 OVC030
     FM210000 18013G23KT P6SM -SHRA SCT020 OVC050=

USA.gov is the U.S. government's official web portal to all federal, state and local government web resources and services.